sensor_id;sensor_type;location;lat;lon;timestamp;P1;durP1;ratioP1;P2;durP2;ratioP2
57848;SDS011;68645;44.762;21.516;2023-07-31T00:00:51;7.75;;;5.20;;
57848;SDS011;68645;44.762;21.516;2023-07-31T00:03:18;7.35;;;5.32;;
57848;SDS011;68645;44.762;21.516;2023-07-31T00:05:44;6.75;;;4.65;;
57848;SDS011;68645;44.762;21.516;2023-07-31T00:08:11;7.00;;;5.40;;
57848;SDS011;68645;44.762;21.516;2023-07-31T00:10:37;7.43;;;5.88;;
57848;SDS011;68645;44.762;21.516;2023-07-31T00:13:03;10.43;;;6.43;;
57848;SDS011;68645;44.762;21.516;2023-07-31T00:15:29;8.68;;;6.38;;
57848;SDS011;68645;44.762;21.516;2023-07-31T00:17:55;9.57;;;5.68;;
57848;SDS011;68645;44.762;21.516;2023-07-31T00:20:21;6.05;;;5.43;;
57848;SDS011;68645;44.762;21.516;2023-07-31T00:22:47;8.73;;;5.88;;
57848;SDS011;68645;44.762;21.516;2023-07-31T00:25:14;9.32;;;5.90;;
57848;SDS011;68645;44.762;21.516;2023-07-31T00:27:40;9.43;;;5.45;;
57848;SDS011;68645;44.762;21.516;2023-07-31T00:30:09;9.23;;;5.63;;
57848;SDS011;68645;44.762;21.516;2023-07-31T00:32:35;8.60;;;5.45;;
57848;SDS011;68645;44.762;21.516;2023-07-31T00:35:01;8.50;;;5.65;;
57848;SDS011;68645;44.762;21.516;2023-07-31T00:37:28;12.60;;;5.70;;
57848;SDS011;68645;44.762;21.516;2023-07-31T00:39:54;12.15;;;5.22;;
57848;SDS011;68645;44.762;21.516;2023-07-31T00:42:20;5.72;;;5.18;;
57848;SDS011;68645;44.762;21.516;2023-07-31T00:44:46;9.82;;;6.07;;
57848;SDS011;68645;44.762;21.516;2023-07-31T00:47:12;11.80;;;5.50;;
57848;SDS011;68645;44.762;21.516;2023-07-31T00:49:38;6.25;;;5.55;;
57848;SDS011;68645;44.762;21.516;2023-07-31T00:52:05;8.13;;;5.70;;
57848;SDS011;68645;44.762;21.516;2023-07-31T00:54:31;6.55;;;5.80;;
57848;SDS011;68645;44.762;21.516;2023-07-31T00:56:57;7.25;;;5.43;;
57848;SDS011;68645;44.762;21.516;2023-07-31T00:59:23;10.02;;;6.25;;
57848;SDS011;68645;44.762;21.516;2023-07-31T01:01:49;7.95;;;6.13;;
57848;SDS011;68645;44.762;21.516;2023-07-31T01:04:16;7.18;;;5.53;;
57848;SDS011;68645;44.762;21.516;2023-07-31T01:11:56;8.13;;;5.82;;
57848;SDS011;68645;44.762;21.516;2023-07-31T01:14:24;7.60;;;5.53;;
57848;SDS011;68645;44.762;21.516;2023-07-31T01:16:50;7.82;;;5.90;;
57848;SDS011;68645;44.762;21.516;2023-07-31T01:19:17;7.63;;;5.88;;
57848;SDS011;68645;44.762;21.516;2023-07-31T01:21:53;6.05;;;5.40;;
57848;SDS011;68645;44.762;21.516;2023-07-31T01:24:23;8.65;;;6.32;;
57848;SDS011;68645;44.762;21.516;2023-07-31T01:26:56;8.30;;;6.45;;
57848;SDS011;68645;44.762;21.516;2023-07-31T01:29:34;8.77;;;7.32;;
57848;SDS011;68645;44.762;21.516;2023-07-31T01:32:02;9.23;;;8.20;;
57848;SDS011;68645;44.762;21.516;2023-07-31T01:34:29;9.23;;;7.82;;
57848;SDS011;68645;44.762;21.516;2023-07-31T01:36:56;13.00;;;7.88;;
57848;SDS011;68645;44.762;21.516;2023-07-31T01:39:23;8.52;;;7.35;;
57848;SDS011;68645;44.762;21.516;2023-07-31T01:41:49;8.85;;;7.95;;
57848;SDS011;68645;44.762;21.516;2023-07-31T01:44:15;8.02;;;6.65;;
57848;SDS011;68645;44.762;21.516;2023-07-31T01:46:42;7.53;;;6.13;;
57848;SDS011;68645;44.762;21.516;2023-07-31T01:49:08;8.05;;;6.50;;
57848;SDS011;68645;44.762;21.516;2023-07-31T01:51:34;9.48;;;6.53;;
57848;SDS011;68645;44.762;21.516;2023-07-31T01:54:00;7.40;;;6.10;;
57848;SDS011;68645;44.762;21.516;2023-07-31T01:56:27;7.43;;;6.25;;
57848;SDS011;68645;44.762;21.516;2023-07-31T01:58:53;8.77;;;6.47;;
57848;SDS011;68645;44.762;21.516;2023-07-31T02:01:19;9.43;;;7.80;;
57848;SDS011;68645;44.762;21.516;2023-07-31T02:03:45;11.10;;;7.50;;
57848;SDS011;68645;44.762;21.516;2023-07-31T02:06:11;9.25;;;7.18;;
57848;SDS011;68645;44.762;21.516;2023-07-31T02:08:37;11.82;;;7.82;;
57848;SDS011;68645;44.762;21.516;2023-07-31T02:11:03;8.80;;;7.03;;
57848;SDS011;68645;44.762;21.516;2023-07-31T02:13:29;11.82;;;8.07;;
57848;SDS011;68645;44.762;21.516;2023-07-31T02:15:56;11.00;;;8.63;;
57848;SDS011;68645;44.762;21.516;2023-07-31T02:18:22;9.63;;;8.45;;
57848;SDS011;68645;44.762;21.516;2023-07-31T02:20:52;15.23;;;11.23;;
57848;SDS011;68645;44.762;21.516;2023-07-31T02:23:18;17.83;;;15.93;;
57848;SDS011;68645;44.762;21.516;2023-07-31T02:25:45;17.10;;;14.85;;
57848;SDS011;68645;44.762;21.516;2023-07-31T02:28:11;24.85;;;22.35;;
57848;SDS011;68645;44.762;21.516;2023-07-31T02:30:37;21.52;;;19.23;;
57848;SDS011;68645;44.762;21.516;2023-07-31T02:33:04;17.23;;;14.15;;
57848;SDS011;68645;44.762;21.516;2023-07-31T02:35:30;13.63;;;11.10;;
57848;SDS011;68645;44.762;21.516;2023-07-31T02:37:57;15.45;;;10.93;;
57848;SDS011;68645;44.762;21.516;2023-07-31T02:40:23;17.50;;;10.82;;
57848;SDS011;68645;44.762;21.516;2023-07-31T02:42:49;13.10;;;10.02;;
57848;SDS011;68645;44.762;21.516;2023-07-31T02:45:15;14.27;;;8.52;;
57848;SDS011;68645;44.762;21.516;2023-07-31T02:47:41;9.77;;;7.45;;
57848;SDS011;68645;44.762;21.516;2023-07-31T02:50:07;11.88;;;7.78;;
57848;SDS011;68645;44.762;21.516;2023-07-31T02:52:34;8.13;;;6.95;;
57848;SDS011;68645;44.762;21.516;2023-07-31T02:55:00;7.85;;;6.80;;
57848;SDS011;68645;44.762;21.516;2023-07-31T02:57:26;9.02;;;6.80;;
57848;SDS011;68645;44.762;21.516;2023-07-31T02:59:52;10.85;;;6.78;;
57848;SDS011;68645;44.762;21.516;2023-07-31T03:02:18;11.15;;;6.78;;
57848;SDS011;68645;44.762;21.516;2023-07-31T03:04:44;9.60;;;6.20;;
57848;SDS011;68645;44.762;21.516;2023-07-31T03:07:10;8.20;;;6.30;;
57848;SDS011;68645;44.762;21.516;2023-07-31T03:09:37;7.55;;;6.28;;
57848;SDS011;68645;44.762;21.516;2023-07-31T03:12:03;6.97;;;6.28;;
57848;SDS011;68645;44.762;21.516;2023-07-31T03:14:29;8.50;;;7.43;;
57848;SDS011;68645;44.762;21.516;2023-07-31T03:16:55;8.90;;;7.53;;
57848;SDS011;68645;44.762;21.516;2023-07-31T03:19:21;9.65;;;6.55;;
57848;SDS011;68645;44.762;21.516;2023-07-31T03:21:48;9.40;;;6.43;;
57848;SDS011;68645;44.762;21.516;2023-07-31T03:24:14;7.93;;;6.57;;
57848;SDS011;68645;44.762;21.516;2023-07-31T03:26:40;8.02;;;6.32;;
57848;SDS011;68645;44.762;21.516;2023-07-31T03:29:09;10.30;;;7.03;;
57848;SDS011;68645;44.762;21.516;2023-07-31T03:31:35;7.65;;;6.68;;
57848;SDS011;68645;44.762;21.516;2023-07-31T03:34:01;11.45;;;6.80;;
57848;SDS011;68645;44.762;21.516;2023-07-31T03:36:27;8.55;;;6.28;;
57848;SDS011;68645;44.762;21.516;2023-07-31T03:38:53;12.77;;;6.03;;
57848;SDS011;68645;44.762;21.516;2023-07-31T03:41:19;9.20;;;5.93;;
57848;SDS011;68645;44.762;21.516;2023-07-31T03:43:50;9.70;;;6.00;;
57848;SDS011;68645;44.762;21.516;2023-07-31T03:46:23;10.43;;;5.72;;
57848;SDS011;68645;44.762;21.516;2023-07-31T03:48:49;7.22;;;5.65;;
57848;SDS011;68645;44.762;21.516;2023-07-31T03:51:16;9.70;;;6.20;;
57848;SDS011;68645;44.762;21.516;2023-07-31T03:53:42;8.48;;;5.88;;
57848;SDS011;68645;44.762;21.516;2023-07-31T03:56:09;11.07;;;5.97;;
57848;SDS011;68645;44.762;21.516;2023-07-31T03:58:35;9.35;;;5.88;;
57848;SDS011;68645;44.762;21.516;2023-07-31T04:01:02;7.90;;;6.18;;
57848;SDS011;68645;44.762;21.516;2023-07-31T04:03:28;9.00;;;7.95;;
57848;SDS011;68645;44.762;21.516;2023-07-31T04:05:55;10.90;;;9.38;;
57848;SDS011;68645;44.762;21.516;2023-07-31T04:08:21;9.52;;;8.52;;
57848;SDS011;68645;44.762;21.516;2023-07-31T04:10:47;9.20;;;8.13;;
57848;SDS011;68645;44.762;21.516;2023-07-31T04:13:14;11.23;;;8.48;;
57848;SDS011;68645;44.762;21.516;2023-07-31T04:15:40;8.40;;;7.05;;
57848;SDS011;68645;44.762;21.516;2023-07-31T04:18:06;9.75;;;6.95;;
57848;SDS011;68645;44.762;21.516;2023-07-31T04:20:32;13.02;;;6.43;;
57848;SDS011;68645;44.762;21.516;2023-07-31T04:22:58;7.45;;;5.65;;
57848;SDS011;68645;44.762;21.516;2023-07-31T04:25:24;8.48;;;5.80;;
57848;SDS011;68645;44.762;21.516;2023-07-31T04:27:51;7.82;;;6.00;;
57848;SDS011;68645;44.762;21.516;2023-07-31T04:30:17;8.57;;;6.32;;
57848;SDS011;68645;44.762;21.516;2023-07-31T04:32:43;10.20;;;6.13;;
57848;SDS011;68645;44.762;21.516;2023-07-31T04:35:09;8.60;;;6.15;;
57848;SDS011;68645;44.762;21.516;2023-07-31T04:37:35;12.30;;;6.35;;
57848;SDS011;68645;44.762;21.516;2023-07-31T04:40:01;9.60;;;7.57;;
57848;SDS011;68645;44.762;21.516;2023-07-31T04:42:27;11.63;;;10.43;;
57848;SDS011;68645;44.762;21.516;2023-07-31T04:44:53;11.82;;;9.82;;
57848;SDS011;68645;44.762;21.516;2023-07-31T04:47:19;10.90;;;7.40;;
57848;SDS011;68645;44.762;21.516;2023-07-31T04:49:46;12.20;;;9.13;;
57848;SDS011;68645;44.762;21.516;2023-07-31T04:52:12;9.88;;;7.10;;
57848;SDS011;68645;44.762;21.516;2023-07-31T04:54:38;8.98;;;6.20;;
57848;SDS011;68645;44.762;21.516;2023-07-31T04:57:04;8.50;;;5.97;;
57848;SDS011;68645;44.762;21.516;2023-07-31T04:59:31;7.55;;;5.78;;
57848;SDS011;68645;44.762;21.516;2023-07-31T05:01:57;7.28;;;5.60;;
57848;SDS011;68645;44.762;21.516;2023-07-31T05:04:23;10.00;;;6.13;;
57848;SDS011;68645;44.762;21.516;2023-07-31T05:06:49;8.57;;;5.72;;
57848;SDS011;68645;44.762;21.516;2023-07-31T05:09:15;7.72;;;5.68;;
57848;SDS011;68645;44.762;21.516;2023-07-31T05:11:41;6.35;;;5.18;;
57848;SDS011;68645;44.762;21.516;2023-07-31T05:14:08;8.52;;;5.60;;
57848;SDS011;68645;44.762;21.516;2023-07-31T05:16:34;7.82;;;5.63;;
57848;SDS011;68645;44.762;21.516;2023-07-31T05:19:00;9.02;;;5.75;;
57848;SDS011;68645;44.762;21.516;2023-07-31T05:21:26;8.88;;;5.60;;
57848;SDS011;68645;44.762;21.516;2023-07-31T05:23:52;8.18;;;5.25;;
57848;SDS011;68645;44.762;21.516;2023-07-31T05:26:18;7.97;;;5.72;;
57848;SDS011;68645;44.762;21.516;2023-07-31T05:28:45;7.03;;;5.55;;
57848;SDS011;68645;44.762;21.516;2023-07-31T05:31:11;10.90;;;5.60;;
57848;SDS011;68645;44.762;21.516;2023-07-31T05:33:37;9.77;;;5.50;;
57848;SDS011;68645;44.762;21.516;2023-07-31T05:36:03;7.78;;;6.03;;
57848;SDS011;68645;44.762;21.516;2023-07-31T05:38:29;8.55;;;5.88;;
57848;SDS011;68645;44.762;21.516;2023-07-31T05:40:55;8.85;;;5.47;;
57848;SDS011;68645;44.762;21.516;2023-07-31T05:43:22;9.15;;;6.47;;
57848;SDS011;68645;44.762;21.516;2023-07-31T05:45:48;9.38;;;7.47;;
57848;SDS011;68645;44.762;21.516;2023-07-31T05:48:14;8.25;;;5.63;;
57848;SDS011;68645;44.762;21.516;2023-07-31T05:50:40;18.38;;;10.75;;
57848;SDS011;68645;44.762;21.516;2023-07-31T05:53:06;10.93;;;7.50;;
57848;SDS011;68645;44.762;21.516;2023-07-31T05:55:33;9.60;;;6.82;;
57848;SDS011;68645;44.762;21.516;2023-07-31T05:57:59;12.55;;;7.63;;
57848;SDS011;68645;44.762;21.516;2023-07-31T06:00:25;11.98;;;9.38;;
57848;SDS011;68645;44.762;21.516;2023-07-31T06:02:52;13.15;;;9.45;;
57848;SDS011;68645;44.762;21.516;2023-07-31T06:05:18;8.65;;;7.57;;
57848;SDS011;68645;44.762;21.516;2023-07-31T06:07:45;11.77;;;8.85;;
57848;SDS011;68645;44.762;21.516;2023-07-31T06:10:11;12.02;;;9.50;;
57848;SDS011;68645;44.762;21.516;2023-07-31T06:12:38;10.10;;;9.02;;
57848;SDS011;68645;44.762;21.516;2023-07-31T06:15:04;13.48;;;9.68;;
57848;SDS011;68645;44.762;21.516;2023-07-31T06:17:31;10.57;;;9.27;;
57848;SDS011;68645;44.762;21.516;2023-07-31T06:19:57;10.75;;;9.65;;
57848;SDS011;68645;44.762;21.516;2023-07-31T06:22:23;10.55;;;9.20;;
57848;SDS011;68645;44.762;21.516;2023-07-31T06:24:49;14.63;;;11.15;;
57848;SDS011;68645;44.762;21.516;2023-07-31T06:27:15;11.75;;;10.10;;
57848;SDS011;68645;44.762;21.516;2023-07-31T06:29:42;12.77;;;11.02;;
57848;SDS011;68645;44.762;21.516;2023-07-31T06:32:08;13.15;;;11.20;;
57848;SDS011;68645;44.762;21.516;2023-07-31T06:34:34;12.27;;;11.07;;
57848;SDS011;68645;44.762;21.516;2023-07-31T06:37:00;14.50;;;12.73;;
57848;SDS011;68645;44.762;21.516;2023-07-31T06:39:26;13.13;;;11.80;;
57848;SDS011;68645;44.762;21.516;2023-07-31T06:41:52;13.63;;;11.75;;
57848;SDS011;68645;44.762;21.516;2023-07-31T06:44:18;16.55;;;13.52;;
57848;SDS011;68645;44.762;21.516;2023-07-31T06:46:45;16.70;;;14.77;;
57848;SDS011;68645;44.762;21.516;2023-07-31T06:49:11;13.10;;;11.77;;
57848;SDS011;68645;44.762;21.516;2023-07-31T06:51:37;11.90;;;10.57;;
57848;SDS011;68645;44.762;21.516;2023-07-31T06:54:03;12.40;;;10.98;;
57848;SDS011;68645;44.762;21.516;2023-07-31T06:56:29;13.30;;;11.13;;
57848;SDS011;68645;44.762;21.516;2023-07-31T06:58:56;13.25;;;10.90;;
57848;SDS011;68645;44.762;21.516;2023-07-31T07:01:22;13.40;;;11.05;;
57848;SDS011;68645;44.762;21.516;2023-07-31T07:03:48;15.35;;;12.02;;
57848;SDS011;68645;44.762;21.516;2023-07-31T07:06:16;13.15;;;11.75;;
57848;SDS011;68645;44.762;21.516;2023-07-31T07:08:42;13.38;;;12.07;;
57848;SDS011;68645;44.762;21.516;2023-07-31T07:11:09;14.57;;;13.13;;
57848;SDS011;68645;44.762;21.516;2023-07-31T07:13:35;18.10;;;14.25;;
57848;SDS011;68645;44.762;21.516;2023-07-31T07:16:01;15.40;;;13.80;;
57848;SDS011;68645;44.762;21.516;2023-07-31T07:18:27;16.23;;;14.52;;
57848;SDS011;68645;44.762;21.516;2023-07-31T07:20:53;16.63;;;14.73;;
57848;SDS011;68645;44.762;21.516;2023-07-31T07:23:20;15.30;;;13.85;;
57848;SDS011;68645;44.762;21.516;2023-07-31T07:25:46;18.02;;;15.18;;
57848;SDS011;68645;44.762;21.516;2023-07-31T07:28:13;17.63;;;11.95;;
57848;SDS011;68645;44.762;21.516;2023-07-31T07:30:39;14.52;;;12.63;;
57848;SDS011;68645;44.762;21.516;2023-07-31T07:33:05;16.10;;;14.43;;
57848;SDS011;68645;44.762;21.516;2023-07-31T07:35:35;11.85;;;10.65;;
57848;SDS011;68645;44.762;21.516;2023-07-31T07:38:01;13.27;;;11.40;;
57848;SDS011;68645;44.762;21.516;2023-07-31T07:40:28;11.27;;;10.13;;
57848;SDS011;68645;44.762;21.516;2023-07-31T07:42:54;13.30;;;9.90;;
57848;SDS011;68645;44.762;21.516;2023-07-31T07:45:20;13.18;;;11.88;;
57848;SDS011;68645;44.762;21.516;2023-07-31T07:47:46;15.15;;;13.43;;
57848;SDS011;68645;44.762;21.516;2023-07-31T07:50:12;11.82;;;10.43;;
57848;SDS011;68645;44.762;21.516;2023-07-31T07:52:38;16.52;;;13.73;;
57848;SDS011;68645;44.762;21.516;2023-07-31T07:55:05;11.38;;;10.27;;
57848;SDS011;68645;44.762;21.516;2023-07-31T07:57:31;14.07;;;8.65;;
57848;SDS011;68645;44.762;21.516;2023-07-31T07:59:57;11.75;;;8.35;;
57848;SDS011;68645;44.762;21.516;2023-07-31T08:02:23;8.20;;;7.32;;
57848;SDS011;68645;44.762;21.516;2023-07-31T08:04:50;8.25;;;7.43;;
57848;SDS011;68645;44.762;21.516;2023-07-31T08:07:16;9.82;;;7.68;;
57848;SDS011;68645;44.762;21.516;2023-07-31T08:09:42;9.90;;;7.40;;
57848;SDS011;68645;44.762;21.516;2023-07-31T08:12:08;9.48;;;7.80;;
57848;SDS011;68645;44.762;21.516;2023-07-31T08:14:35;9.55;;;8.00;;
57848;SDS011;68645;44.762;21.516;2023-07-31T08:17:01;8.45;;;7.40;;
57848;SDS011;68645;44.762;21.516;2023-07-31T08:19:28;7.97;;;6.82;;
57848;SDS011;68645;44.762;21.516;2023-07-31T08:21:54;7.78;;;7.00;;
57848;SDS011;68645;44.762;21.516;2023-07-31T08:24:20;8.13;;;6.90;;
57848;SDS011;68645;44.762;21.516;2023-07-31T08:26:46;7.40;;;6.50;;
57848;SDS011;68645;44.762;21.516;2023-07-31T08:29:13;7.40;;;6.40;;
57848;SDS011;68645;44.762;21.516;2023-07-31T08:31:39;6.95;;;6.13;;
57848;SDS011;68645;44.762;21.516;2023-07-31T08:34:05;10.52;;;6.43;;
57848;SDS011;68645;44.762;21.516;2023-07-31T08:36:31;7.28;;;5.65;;
57848;SDS011;68645;44.762;21.516;2023-07-31T08:38:58;6.35;;;5.75;;
57848;SDS011;68645;44.762;21.516;2023-07-31T08:41:24;8.70;;;6.60;;
57848;SDS011;68645;44.762;21.516;2023-07-31T08:43:50;9.77;;;7.18;;
57848;SDS011;68645;44.762;21.516;2023-07-31T08:46:17;8.50;;;6.15;;
57848;SDS011;68645;44.762;21.516;2023-07-31T08:48:44;6.07;;;5.47;;
57848;SDS011;68645;44.762;21.516;2023-07-31T08:51:13;9.43;;;5.88;;
57848;SDS011;68645;44.762;21.516;2023-07-31T08:53:40;6.82;;;5.43;;
57848;SDS011;68645;44.762;21.516;2023-07-31T08:56:06;5.30;;;4.80;;
57848;SDS011;68645;44.762;21.516;2023-07-31T08:58:33;6.03;;;5.20;;
57848;SDS011;68645;44.762;21.516;2023-07-31T09:01:01;6.32;;;5.00;;
57848;SDS011;68645;44.762;21.516;2023-07-31T09:03:27;5.82;;;4.90;;
57848;SDS011;68645;44.762;21.516;2023-07-31T09:05:53;6.15;;;3.78;;
57848;SDS011;68645;44.762;21.516;2023-07-31T09:08:21;6.53;;;5.60;;
57848;SDS011;68645;44.762;21.516;2023-07-31T09:10:48;6.38;;;5.25;;
57848;SDS011;68645;44.762;21.516;2023-07-31T09:13:17;4.63;;;4.03;;
57848;SDS011;68645;44.762;21.516;2023-07-31T09:15:44;9.52;;;4.63;;
57848;SDS011;68645;44.762;21.516;2023-07-31T09:18:10;7.90;;;5.50;;
57848;SDS011;68645;44.762;21.516;2023-07-31T09:20:37;6.65;;;5.55;;
57848;SDS011;68645;44.762;21.516;2023-07-31T09:23:10;5.82;;;5.05;;
57848;SDS011;68645;44.762;21.516;2023-07-31T09:25:37;6.78;;;5.05;;
57848;SDS011;68645;44.762;21.516;2023-07-31T09:28:05;6.65;;;4.75;;
57848;SDS011;68645;44.762;21.516;2023-07-31T09:30:32;5.70;;;4.40;;
57848;SDS011;68645;44.762;21.516;2023-07-31T09:33:03;5.75;;;4.47;;
57848;SDS011;68645;44.762;21.516;2023-07-31T09:35:32;6.88;;;4.00;;
57848;SDS011;68645;44.762;21.516;2023-07-31T09:37:59;6.45;;;4.10;;
57848;SDS011;68645;44.762;21.516;2023-07-31T09:40:26;4.30;;;3.72;;
57848;SDS011;68645;44.762;21.516;2023-07-31T09:42:53;5.15;;;3.83;;
57848;SDS011;68645;44.762;21.516;2023-07-31T09:45:20;3.67;;;2.88;;
57848;SDS011;68645;44.762;21.516;2023-07-31T09:47:46;5.18;;;4.15;;
57848;SDS011;68645;44.762;21.516;2023-07-31T09:50:13;5.05;;;4.25;;
57848;SDS011;68645;44.762;21.516;2023-07-31T09:52:41;4.90;;;3.53;;
57848;SDS011;68645;44.762;21.516;2023-07-31T09:55:07;4.53;;;3.30;;
57848;SDS011;68645;44.762;21.516;2023-07-31T09:57:34;5.90;;;3.22;;
57848;SDS011;68645;44.762;21.516;2023-07-31T10:00:02;6.35;;;4.05;;
57848;SDS011;68645;44.762;21.516;2023-07-31T10:02:29;8.45;;;5.40;;
57848;SDS011;68645;44.762;21.516;2023-07-31T10:04:56;5.10;;;3.50;;
57848;SDS011;68645;44.762;21.516;2023-07-31T10:07:23;6.15;;;4.82;;
57848;SDS011;68645;44.762;21.516;2023-07-31T10:09:51;7.65;;;5.88;;
57848;SDS011;68645;44.762;21.516;2023-07-31T10:12:18;8.10;;;4.85;;
57848;SDS011;68645;44.762;21.516;2023-07-31T10:14:45;10.25;;;8.10;;
57848;SDS011;68645;44.762;21.516;2023-07-31T10:17:11;11.40;;;8.38;;
57848;SDS011;68645;44.762;21.516;2023-07-31T10:19:38;10.48;;;6.72;;
57848;SDS011;68645;44.762;21.516;2023-07-31T10:22:04;6.68;;;5.43;;
57848;SDS011;68645;44.762;21.516;2023-07-31T10:24:31;6.65;;;5.00;;
57848;SDS011;68645;44.762;21.516;2023-07-31T10:26:58;5.43;;;3.97;;
57848;SDS011;68645;44.762;21.516;2023-07-31T10:29:24;6.78;;;4.05;;
57848;SDS011;68645;44.762;21.516;2023-07-31T10:31:51;33.67;;;29.27;;
57848;SDS011;68645;44.762;21.516;2023-07-31T10:34:18;88.90;;;79.18;;
57848;SDS011;68645;44.762;21.516;2023-07-31T10:36:44;45.17;;;39.13;;
57848;SDS011;68645;44.762;21.516;2023-07-31T10:39:55;29.30;;;26.20;;
57848;SDS011;68645;44.762;21.516;2023-07-31T10:41:56;41.15;;;36.78;;
57848;SDS011;68645;44.762;21.516;2023-07-31T10:44:22;42.63;;;38.08;;
57848;SDS011;68645;44.762;21.516;2023-07-31T10:46:49;48.55;;;38.08;;
57848;SDS011;68645;44.762;21.516;2023-07-31T10:49:20;8.88;;;5.88;;
57848;SDS011;68645;44.762;21.516;2023-07-31T10:51:47;12.07;;;9.90;;
57848;SDS011;68645;44.762;21.516;2023-07-31T10:54:13;7.70;;;6.07;;
57848;SDS011;68645;44.762;21.516;2023-07-31T10:56:44;5.97;;;4.20;;
57848;SDS011;68645;44.762;21.516;2023-07-31T10:59:13;18.70;;;16.52;;
57848;SDS011;68645;44.762;21.516;2023-07-31T11:01:55;9.82;;;7.82;;
57848;SDS011;68645;44.762;21.516;2023-07-31T11:04:27;5.75;;;4.53;;
57848;SDS011;68645;44.762;21.516;2023-07-31T11:06:59;4.65;;;3.55;;
57848;SDS011;68645;44.762;21.516;2023-07-31T11:09:29;15.15;;;11.93;;
57848;SDS011;68645;44.762;21.516;2023-07-31T11:11:57;8.13;;;5.82;;
57848;SDS011;68645;44.762;21.516;2023-07-31T11:14:23;10.68;;;6.25;;
57848;SDS011;68645;44.762;21.516;2023-07-31T11:16:50;7.55;;;6.03;;
57848;SDS011;68645;44.762;21.516;2023-07-31T11:19:23;8.07;;;5.28;;
57848;SDS011;68645;44.762;21.516;2023-07-31T11:21:50;7.55;;;4.00;;
57848;SDS011;68645;44.762;21.516;2023-07-31T11:24:16;6.53;;;4.47;;
57848;SDS011;68645;44.762;21.516;2023-07-31T11:26:49;7.00;;;5.10;;
57848;SDS011;68645;44.762;21.516;2023-07-31T11:29:15;7.63;;;5.72;;
57848;SDS011;68645;44.762;21.516;2023-07-31T11:31:42;6.05;;;4.22;;
57848;SDS011;68645;44.762;21.516;2023-07-31T11:34:08;5.65;;;4.07;;
57848;SDS011;68645;44.762;21.516;2023-07-31T11:36:37;6.80;;;5.15;;
57848;SDS011;68645;44.762;21.516;2023-07-31T11:39:10;6.43;;;3.90;;
57848;SDS011;68645;44.762;21.516;2023-07-31T11:41:40;4.28;;;3.60;;
57848;SDS011;68645;44.762;21.516;2023-07-31T11:44:06;5.97;;;4.70;;
57848;SDS011;68645;44.762;21.516;2023-07-31T11:46:32;6.03;;;4.38;;
57848;SDS011;68645;44.762;21.516;2023-07-31T11:48:59;6.05;;;3.72;;
57848;SDS011;68645;44.762;21.516;2023-07-31T11:51:25;5.75;;;3.95;;
57848;SDS011;68645;44.762;21.516;2023-07-31T11:53:55;6.85;;;3.50;;
57848;SDS011;68645;44.762;21.516;2023-07-31T11:56:22;4.55;;;3.10;;
57848;SDS011;68645;44.762;21.516;2023-07-31T11:58:58;4.90;;;3.67;;
57848;SDS011;68645;44.762;21.516;2023-07-31T12:01:25;4.60;;;2.78;;
57848;SDS011;68645;44.762;21.516;2023-07-31T12:03:52;5.78;;;3.20;;
57848;SDS011;68645;44.762;21.516;2023-07-31T12:06:19;7.15;;;4.13;;
57848;SDS011;68645;44.762;21.516;2023-07-31T12:08:46;4.75;;;3.70;;
57848;SDS011;68645;44.762;21.516;2023-07-31T12:11:12;5.45;;;3.83;;
57848;SDS011;68645;44.762;21.516;2023-07-31T12:13:40;5.32;;;3.38;;
57848;SDS011;68645;44.762;21.516;2023-07-31T12:16:06;4.13;;;3.40;;
57848;SDS011;68645;44.762;21.516;2023-07-31T12:18:35;3.88;;;2.88;;
57848;SDS011;68645;44.762;21.516;2023-07-31T12:21:02;4.63;;;3.05;;
57848;SDS011;68645;44.762;21.516;2023-07-31T12:23:33;4.85;;;2.70;;
57848;SDS011;68645;44.762;21.516;2023-07-31T12:26:06;3.78;;;2.60;;
57848;SDS011;68645;44.762;21.516;2023-07-31T12:28:36;3.10;;;2.20;;
57848;SDS011;68645;44.762;21.516;2023-07-31T12:31:03;4.45;;;2.95;;
57848;SDS011;68645;44.762;21.516;2023-07-31T12:33:34;5.10;;;3.58;;
57848;SDS011;68645;44.762;21.516;2023-07-31T12:38:26;7.35;;;6.20;;
57848;SDS011;68645;44.762;21.516;2023-07-31T12:40:52;7.82;;;4.95;;
57848;SDS011;68645;44.762;21.516;2023-07-31T12:43:18;5.43;;;3.40;;
57848;SDS011;68645;44.762;21.516;2023-07-31T12:45:45;4.45;;;2.95;;
57848;SDS011;68645;44.762;21.516;2023-07-31T12:48:12;11.35;;;4.60;;
57848;SDS011;68645;44.762;21.516;2023-07-31T12:50:38;5.85;;;3.40;;
57848;SDS011;68645;44.762;21.516;2023-07-31T12:53:05;4.38;;;3.63;;
57848;SDS011;68645;44.762;21.516;2023-07-31T12:55:31;3.83;;;3.03;;
57848;SDS011;68645;44.762;21.516;2023-07-31T12:57:59;4.55;;;2.47;;
57848;SDS011;68645;44.762;21.516;2023-07-31T13:00:25;3.70;;;2.20;;
57848;SDS011;68645;44.762;21.516;2023-07-31T13:02:52;4.22;;;2.22;;
57848;SDS011;68645;44.762;21.516;2023-07-31T13:05:18;6.05;;;2.60;;
57848;SDS011;68645;44.762;21.516;2023-07-31T13:07:48;5.40;;;2.35;;
57848;SDS011;68645;44.762;21.516;2023-07-31T13:10:14;4.60;;;2.58;;
57848;SDS011;68645;44.762;21.516;2023-07-31T13:12:40;4.45;;;3.05;;
57848;SDS011;68645;44.762;21.516;2023-07-31T13:15:06;4.93;;;2.85;;
57848;SDS011;68645;44.762;21.516;2023-07-31T13:17:33;7.20;;;2.67;;
57848;SDS011;68645;44.762;21.516;2023-07-31T13:19:59;3.35;;;2.10;;
57848;SDS011;68645;44.762;21.516;2023-07-31T13:22:25;3.85;;;2.20;;
57848;SDS011;68645;44.762;21.516;2023-07-31T13:24:51;4.70;;;2.20;;
57848;SDS011;68645;44.762;21.516;2023-07-31T13:27:18;3.72;;;2.38;;
57848;SDS011;68645;44.762;21.516;2023-07-31T13:29:46;3.58;;;2.50;;
57848;SDS011;68645;44.762;21.516;2023-07-31T13:32:12;4.65;;;2.08;;
57848;SDS011;68645;44.762;21.516;2023-07-31T13:34:38;3.95;;;2.30;;
57848;SDS011;68645;44.762;21.516;2023-07-31T13:37:05;4.30;;;2.63;;
57848;SDS011;68645;44.762;21.516;2023-07-31T13:39:31;4.00;;;2.40;;
57848;SDS011;68645;44.762;21.516;2023-07-31T13:41:58;5.15;;;2.53;;
57848;SDS011;68645;44.762;21.516;2023-07-31T13:44:24;4.60;;;2.17;;
57848;SDS011;68645;44.762;21.516;2023-07-31T13:46:51;3.63;;;2.30;;
57848;SDS011;68645;44.762;21.516;2023-07-31T13:49:17;5.20;;;2.60;;
57848;SDS011;68645;44.762;21.516;2023-07-31T13:51:43;7.80;;;3.33;;
57848;SDS011;68645;44.762;21.516;2023-07-31T13:54:09;3.88;;;2.42;;
57848;SDS011;68645;44.762;21.516;2023-07-31T13:56:40;4.45;;;2.55;;
57848;SDS011;68645;44.762;21.516;2023-07-31T13:59:06;5.20;;;2.50;;
57848;SDS011;68645;44.762;21.516;2023-07-31T14:01:32;4.25;;;2.10;;
57848;SDS011;68645;44.762;21.516;2023-07-31T14:03:58;3.75;;;2.30;;
57848;SDS011;68645;44.762;21.516;2023-07-31T14:06:25;3.95;;;2.30;;
57848;SDS011;68645;44.762;21.516;2023-07-31T14:08:51;6.05;;;2.28;;
57848;SDS011;68645;44.762;21.516;2023-07-31T14:11:17;4.15;;;2.03;;
57848;SDS011;68645;44.762;21.516;2023-07-31T14:13:43;3.67;;;2.45;;
57848;SDS011;68645;44.762;21.516;2023-07-31T14:16:09;4.22;;;2.40;;
57848;SDS011;68645;44.762;21.516;2023-07-31T14:18:36;3.67;;;1.77;;
57848;SDS011;68645;44.762;21.516;2023-07-31T14:21:02;2.80;;;1.90;;
57848;SDS011;68645;44.762;21.516;2023-07-31T14:23:28;4.22;;;2.10;;
57848;SDS011;68645;44.762;21.516;2023-07-31T14:25:54;4.00;;;2.45;;
57848;SDS011;68645;44.762;21.516;2023-07-31T14:28:20;4.00;;;2.45;;
57848;SDS011;68645;44.762;21.516;2023-07-31T14:30:46;4.03;;;2.22;;
57848;SDS011;68645;44.762;21.516;2023-07-31T14:33:12;3.83;;;2.20;;